createdAt,value
2023-04-27T00:01:43.971Z,7.60
2023-04-27T00:04:11.118Z,7.60
2023-04-27T00:06:38.314Z,7.60
2023-04-27T00:09:05.287Z,7.60
2023-04-27T00:11:35.580Z,7.50
2023-04-27T00:14:02.572Z,7.40
2023-04-27T00:16:29.565Z,7.30
2023-04-27T00:18:56.559Z,7.30
2023-04-27T00:21:23.551Z,7.30
2023-04-27T00:23:50.532Z,7.30
2023-04-27T00:26:17.534Z,7.30
2023-04-27T00:28:44.676Z,7.30
2023-04-27T00:31:11.655Z,7.30
2023-04-27T00:33:38.569Z,7.30
2023-04-27T00:36:05.889Z,7.20
2023-04-27T00:38:32.809Z,7.10
2023-04-27T00:41:07.570Z,7.10
2023-04-27T00:43:46.185Z,7.10
2023-04-27T00:46:17.516Z,7.10
2023-04-27T00:48:44.923Z,7.10
2023-04-27T00:51:12.074Z,7.10
2023-04-27T00:53:39.274Z,8.00
2023-04-27T00:56:07.822Z,7.20
2023-04-27T00:58:35.013Z,7.30
2023-04-27T01:01:02.396Z,7.30
2023-04-27T01:03:31.133Z,7.30
2023-04-27T01:06:01.670Z,7.30
2023-04-27T01:08:31.892Z,7.40
2023-04-27T01:10:58.849Z,7.40
2023-04-27T01:13:25.858Z,7.40
2023-04-27T01:15:52.792Z,7.40
2023-04-27T01:18:19.741Z,7.40
2023-04-27T01:20:47.086Z,7.40
2023-04-27T01:23:17.631Z,7.40
2023-04-27T01:25:44.895Z,7.40
2023-04-27T01:28:12.102Z,7.40
2023-04-27T01:30:39.124Z,7.40
2023-04-27T01:33:06.346Z,7.40
2023-04-27T01:35:33.405Z,7.50
2023-04-27T01:38:00.549Z,7.50
2023-04-27T01:40:27.623Z,7.50
2023-04-27T01:42:54.605Z,7.50
2023-04-27T01:45:21.748Z,7.50
2023-04-27T01:47:52.154Z,7.50
2023-04-27T01:50:19.892Z,7.50
2023-04-27T01:52:46.943Z,7.50
2023-04-27T01:55:14.071Z,7.50
2023-04-27T01:57:41.223Z,7.50
2023-04-27T02:00:08.740Z,7.50
2023-04-27T02:02:35.772Z,7.50
2023-04-27T02:05:03.715Z,7.60
2023-04-27T02:07:30.742Z,7.50
2023-04-27T02:09:57.621Z,7.50
2023-04-27T02:12:24.641Z,7.50
2023-04-27T02:14:51.581Z,7.60
2023-04-27T02:17:18.596Z,7.50
2023-04-27T02:19:45.543Z,7.50
2023-04-27T02:22:12.470Z,7.50
2023-04-27T02:24:39.387Z,7.50
2023-04-27T02:27:06.604Z,7.50
2023-04-27T02:29:33.972Z,7.50
2023-04-27T02:32:01.578Z,7.40
2023-04-27T02:34:28.805Z,7.40
2023-04-27T02:36:55.751Z,7.40
2023-04-27T02:39:22.698Z,7.40
2023-04-27T02:41:49.651Z,7.40
2023-04-27T02:44:16.608Z,8.20
2023-04-27T02:46:43.695Z,7.40
2023-04-27T02:49:10.737Z,7.40
2023-04-27T02:51:37.731Z,7.40
2023-04-27T02:54:04.701Z,7.40
2023-04-27T02:56:31.665Z,7.40
2023-04-27T02:58:58.935Z,7.40
2023-04-27T03:01:26.813Z,7.40
2023-04-27T03:03:54.046Z,7.50
2023-04-27T03:06:21.280Z,7.50
2023-04-27T03:08:48.147Z,7.50
2023-04-27T03:11:15.051Z,7.50
2023-04-27T03:13:42.077Z,7.50
2023-04-27T03:16:11.396Z,7.50
2023-04-27T03:18:39.276Z,7.50
2023-04-27T03:21:10.780Z,7.50
2023-04-27T03:23:38.269Z,7.50
2023-04-27T03:26:13.567Z,7.50
2023-04-27T03:28:41.905Z,7.50
2023-04-27T03:31:10.856Z,7.50
2023-04-27T03:33:38.318Z,7.50
2023-04-27T03:36:06.630Z,7.60
2023-04-27T03:38:35.680Z,7.50
2023-04-27T03:41:02.868Z,7.50
2023-04-27T03:43:30.078Z,7.50
2023-04-27T03:45:57.455Z,7.50
2023-04-27T03:48:24.496Z,7.50
2023-04-27T03:50:51.460Z,7.50
2023-04-27T03:53:18.481Z,7.50
2023-04-27T03:55:45.396Z,8.60
2023-04-27T03:58:12.823Z,7.50
2023-04-27T04:00:40.256Z,7.50
2023-04-27T04:03:08.161Z,7.50
2023-04-27T04:05:35.522Z,7.50
2023-04-27T04:08:02.599Z,7.60
2023-04-27T04:10:29.675Z,7.50
2023-04-27T04:12:56.781Z,7.60
2023-04-27T04:15:23.786Z,7.60
2023-04-27T04:17:51.358Z,7.60
2023-04-27T04:20:18.480Z,7.60
2023-04-27T04:22:45.493Z,7.60
2023-04-27T04:25:13.069Z,7.60
2023-04-27T04:27:41.215Z,7.60
2023-04-27T04:30:08.581Z,7.60
2023-04-27T04:32:37.942Z,7.60
2023-04-27T04:35:06.429Z,7.60
2023-04-27T04:37:36.646Z,7.60
2023-04-27T04:40:11.020Z,7.60
2023-04-27T04:42:39.127Z,7.60
2023-04-27T04:45:07.357Z,7.60
2023-04-27T04:47:34.614Z,7.70
2023-04-27T04:50:02.202Z,7.70
2023-04-27T04:52:29.537Z,7.70
2023-04-27T04:54:56.480Z,7.70
2023-04-27T04:57:23.498Z,7.70
2023-04-27T04:59:50.890Z,7.70
2023-04-27T05:02:18.191Z,7.70
2023-04-27T05:04:45.744Z,7.70
2023-04-27T05:07:15.131Z,7.70
2023-04-27T05:09:43.115Z,7.70
2023-04-27T05:12:11.101Z,7.80
2023-04-27T05:14:38.071Z,7.80
2023-04-27T05:17:05.019Z,7.80
2023-04-27T05:19:31.934Z,7.90
2023-04-27T05:21:59.166Z,7.90
2023-04-27T05:24:26.591Z,7.90
2023-04-27T05:26:53.876Z,8.00
2023-04-27T05:29:22.013Z,8.00
2023-04-27T05:31:49.458Z,8.00
2023-04-27T05:34:16.730Z,8.10
2023-04-27T05:36:43.927Z,8.20
2023-04-27T05:39:11.016Z,8.20
2023-04-27T05:41:38.155Z,8.20
2023-04-27T05:44:05.106Z,8.20
2023-04-27T05:46:32.182Z,8.30
2023-04-27T05:48:59.422Z,8.30
2023-04-27T05:51:27.081Z,8.30
2023-04-27T05:53:55.330Z,8.40
2023-04-27T05:56:22.792Z,8.40
2023-04-27T05:58:49.651Z,8.50
2023-04-27T06:01:16.959Z,8.50
2023-04-27T06:03:44.182Z,8.50
2023-04-27T06:06:11.835Z,8.60
2023-04-27T06:08:39.559Z,8.60
2023-04-27T06:11:07.002Z,8.60
2023-04-27T06:13:34.157Z,8.70
2023-04-27T06:16:01.881Z,8.70
2023-04-27T06:18:29.208Z,8.70
2023-04-27T06:21:01.731Z,8.80
2023-04-27T06:23:29.107Z,8.80
2023-04-27T06:25:56.267Z,8.90
2023-04-27T06:28:23.291Z,8.90
2023-04-27T06:30:50.492Z,9.00
2023-04-27T06:33:17.603Z,9.00
2023-04-27T06:35:47.321Z,9.10
2023-04-27T06:38:14.632Z,9.10
2023-04-27T06:40:41.881Z,9.20
2023-04-27T06:43:08.751Z,9.30
2023-04-27T06:45:36.143Z,9.30
2023-04-27T06:48:03.332Z,9.40
2023-04-27T06:50:30.918Z,9.40
2023-04-27T06:52:58.098Z,9.50
2023-04-27T06:55:25.362Z,9.50
2023-04-27T06:57:52.524Z,9.60
2023-04-27T07:00:20.061Z,9.60
2023-04-27T07:02:47.156Z,9.70
2023-04-27T07:05:14.378Z,9.80
2023-04-27T07:07:41.366Z,10.00
2023-04-27T07:10:09.252Z,10.40
2023-04-27T07:12:37.234Z,10.90
2023-04-27T07:15:06.527Z,11.00
2023-04-27T07:17:34.022Z,11.10
2023-04-27T07:20:06.359Z,11.10
2023-04-27T07:22:33.821Z,11.20
2023-04-27T07:25:01.072Z,11.20
2023-04-27T07:27:28.141Z,11.20
2023-04-27T07:29:55.079Z,11.40
2023-04-27T07:32:23.169Z,11.30
2023-04-27T07:34:54.037Z,11.30
2023-04-27T07:37:22.434Z,11.40
2023-04-27T07:39:52.018Z,11.40
2023-04-27T07:42:19.653Z,11.50
2023-04-27T07:44:46.490Z,11.80
2023-04-27T07:47:13.468Z,12.00
2023-04-27T07:49:40.430Z,12.20
2023-04-27T07:52:07.559Z,12.50
2023-04-27T07:54:35.279Z,12.60
2023-04-27T07:57:07.556Z,12.80
2023-04-27T07:59:34.493Z,13.00
2023-04-27T08:02:17.859Z,13.30
2023-04-27T08:04:46.922Z,13.50
2023-04-27T08:07:15.178Z,13.30
2023-04-27T08:09:42.284Z,13.00
2023-04-27T08:12:09.226Z,12.90
2023-04-27T08:14:36.513Z,12.80
2023-04-27T08:17:03.727Z,12.90
2023-04-27T08:19:30.878Z,13.00
2023-04-27T08:21:57.758Z,13.10
2023-04-27T08:24:24.912Z,13.10
2023-04-27T08:26:51.928Z,13.20
2023-04-27T08:29:27.862Z,13.20
2023-04-27T08:31:58.331Z,13.20
2023-04-27T08:34:25.742Z,13.00
2023-04-27T08:36:53.234Z,12.90
2023-04-27T08:39:20.558Z,12.80
2023-04-27T08:41:47.586Z,12.90
2023-04-27T08:44:14.872Z,13.00
2023-04-27T08:46:42.086Z,12.90
2023-04-27T08:49:09.945Z,12.70
2023-04-27T08:51:37.100Z,12.70
2023-04-27T08:54:04.192Z,12.60
2023-04-27T08:56:31.353Z,12.50
2023-04-27T08:59:00.653Z,12.40
2023-04-27T09:01:27.876Z,12.40
2023-04-27T09:04:00.689Z,12.40
2023-04-27T09:06:35.811Z,12.70
2023-04-27T09:09:03.857Z,12.90
2023-04-27T09:11:36.516Z,13.10
2023-04-27T09:14:25.265Z,13.20
2023-04-27T09:16:57.782Z,13.30
2023-04-27T09:19:26.599Z,13.20
2023-04-27T09:22:13.738Z,13.20
2023-04-27T09:24:51.419Z,13.30
2023-04-27T09:27:22.157Z,13.40
2023-04-27T09:29:49.086Z,13.40
2023-04-27T09:32:17.770Z,13.40
2023-04-27T09:34:45.256Z,13.50
2023-04-27T09:37:14.305Z,13.50
2023-04-27T09:39:42.023Z,13.60
2023-04-27T09:42:09.399Z,13.60
2023-04-27T09:44:36.604Z,13.70
2023-04-27T09:47:03.602Z,13.80
2023-04-27T09:49:34.178Z,13.80
2023-04-27T09:52:01.175Z,13.80
2023-04-27T09:54:32.302Z,13.90
2023-04-27T09:57:49.294Z,14.10
2023-04-27T10:00:24.355Z,14.20
2023-04-27T10:03:16.612Z,14.30
2023-04-27T10:05:52.685Z,14.30
2023-04-27T10:08:20.941Z,14.30
2023-04-27T10:10:53.364Z,14.20
2023-04-27T10:13:25.160Z,14.20
2023-04-27T10:15:53.015Z,14.20
2023-04-27T10:18:31.050Z,14.30
2023-04-27T10:21:10.191Z,14.40
2023-04-27T10:23:46.967Z,14.30
2023-04-27T10:26:14.522Z,14.40
2023-04-27T10:28:41.679Z,14.50
2023-04-27T10:31:12.194Z,14.40
2023-04-27T10:33:45.891Z,14.30
2023-04-27T10:36:16.150Z,14.10
2023-04-27T10:38:43.032Z,14.10
2023-04-27T10:41:14.834Z,14.10
2023-04-27T10:43:41.844Z,14.10
2023-04-27T10:46:11.648Z,14.20
2023-04-27T10:48:43.496Z,14.30
2023-04-27T10:51:15.960Z,14.30
2023-04-27T10:53:43.112Z,14.40
2023-04-27T10:56:10.431Z,14.30
2023-04-27T11:01:09.234Z,14.40
2023-04-27T11:03:36.440Z,14.50
2023-04-27T11:06:05.500Z,14.60
2023-04-27T11:08:36.692Z,14.90
2023-04-27T11:11:06.169Z,15.10
2023-04-27T11:13:33.984Z,15.40
2023-04-27T11:16:01.300Z,15.50
2023-04-27T11:18:31.651Z,15.40
2023-04-27T11:21:20.496Z,15.40
2023-04-27T11:23:47.900Z,15.40
2023-04-27T11:26:19.597Z,15.50
2023-04-27T11:29:14.347Z,15.60
2023-04-27T11:31:49.703Z,15.70
2023-04-27T11:34:19.478Z,15.70
2023-04-27T11:37:10.663Z,15.70
2023-04-27T11:39:45.795Z,15.80
2023-04-27T11:42:24.684Z,15.80
2023-04-27T11:45:05.991Z,15.90
2023-04-27T11:47:35.288Z,15.90
2023-04-27T11:50:08.038Z,16.00
2023-04-27T11:52:36.906Z,16.00
2023-04-27T11:55:04.970Z,16.10
2023-04-27T11:57:33.500Z,16.10
2023-04-27T12:00:02.788Z,16.20
2023-04-27T12:02:31.395Z,16.20
2023-04-27T12:04:59.938Z,16.30
2023-04-27T12:07:27.661Z,16.20
2023-04-27T12:09:54.808Z,16.30
2023-04-27T12:12:22.698Z,16.30
2023-04-27T12:14:50.671Z,16.30
2023-04-27T12:17:18.267Z,16.30
2023-04-27T12:19:45.176Z,16.30
2023-04-27T12:22:12.259Z,16.40
2023-04-27T12:24:39.388Z,16.50
2023-04-27T12:27:07.601Z,16.40
2023-04-27T12:29:34.486Z,16.40
2023-04-27T12:32:01.592Z,16.50
2023-04-27T12:34:28.613Z,16.60
2023-04-27T12:36:56.016Z,16.60
2023-04-27T12:39:26.843Z,16.70
2023-04-27T12:41:54.348Z,16.60
2023-04-27T12:44:22.030Z,16.50
2023-04-27T12:46:49.467Z,16.50
2023-04-27T12:49:16.942Z,16.20
2023-04-27T12:51:43.939Z,16.30
2023-04-27T12:54:12.394Z,16.50
2023-04-27T12:56:39.832Z,16.70
2023-04-27T12:59:06.841Z,17.00
2023-04-27T13:01:34.011Z,17.10
2023-04-27T13:04:03.608Z,17.20
2023-04-27T13:06:32.132Z,17.20
2023-04-27T13:09:00.010Z,17.30
2023-04-27T13:11:30.960Z,17.40
2023-04-27T13:13:57.917Z,17.40
2023-04-27T13:16:25.544Z,17.40
2023-04-27T13:21:21.355Z,17.40
2023-04-27T13:23:49.300Z,17.30
2023-04-27T13:26:16.696Z,17.20
2023-04-27T13:28:43.667Z,17.20
2023-04-27T13:31:11.103Z,17.10
2023-04-27T13:33:43.308Z,17.10
2023-04-27T13:36:11.482Z,17.20
2023-04-27T13:38:38.483Z,17.30
2023-04-27T13:41:06.769Z,17.40
2023-04-27T13:43:33.908Z,17.60
2023-04-27T13:46:02.515Z,17.80
2023-04-27T13:48:30.510Z,17.90
2023-04-27T13:50:58.024Z,17.90
2023-04-27T13:53:26.012Z,18.00
2023-04-27T13:55:54.767Z,18.00
2023-04-27T13:58:23.211Z,17.90
2023-04-27T14:00:52.953Z,18.00
2023-04-27T14:03:20.732Z,18.10
2023-04-27T14:05:53.712Z,18.10
2023-04-27T14:08:21.763Z,18.10
2023-04-27T14:10:49.945Z,17.90
2023-04-27T14:13:19.370Z,17.80
2023-04-27T14:15:46.826Z,17.80
2023-04-27T14:18:13.982Z,17.90
2023-04-27T14:20:42.294Z,18.00
2023-04-27T14:23:11.138Z,18.00
2023-04-27T14:25:39.214Z,18.30
2023-04-27T14:28:06.973Z,18.50
2023-04-27T14:30:35.176Z,18.60
2023-04-27T14:33:03.085Z,18.70
2023-04-27T14:35:30.830Z,18.70
2023-04-27T14:38:02.182Z,18.80
2023-04-27T14:40:31.582Z,18.70
2023-04-27T14:42:58.982Z,18.50
2023-04-27T14:45:31.198Z,18.50
2023-04-27T14:48:07.437Z,18.50
2023-04-27T14:50:34.665Z,18.50
2023-04-27T14:53:02.837Z,18.50
2023-04-27T14:55:30.324Z,18.50
2023-04-27T14:57:57.390Z,18.50
2023-04-27T15:00:24.696Z,18.30
2023-04-27T15:02:57.941Z,18.10
2023-04-27T15:05:25.797Z,18.00
2023-04-27T15:07:52.734Z,18.20
2023-04-27T15:10:19.803Z,18.30
2023-04-27T15:12:46.766Z,18.30
2023-04-27T15:15:14.976Z,18.40
2023-04-27T15:17:41.975Z,18.60
2023-04-27T15:20:09.274Z,18.70
2023-04-27T15:22:36.473Z,18.60
2023-04-27T15:25:03.814Z,18.50
2023-04-27T15:27:30.932Z,18.50
2023-04-27T15:29:58.693Z,18.70
2023-04-27T15:32:30.040Z,18.70
2023-04-27T15:35:00.243Z,18.20
2023-04-27T15:37:28.248Z,18.00
2023-04-27T15:39:56.117Z,17.80
2023-04-27T15:42:24.313Z,17.70
2023-04-27T15:44:51.496Z,17.70
2023-04-27T15:47:18.701Z,17.70
2023-04-27T15:49:56.296Z,17.70
2023-04-27T15:52:30.786Z,17.70
2023-04-27T15:54:57.953Z,17.70
2023-04-27T15:57:24.935Z,17.80
2023-04-27T15:59:52.551Z,18.00
2023-04-27T16:02:19.629Z,18.20
2023-04-27T16:04:48.983Z,18.30
2023-04-27T16:07:17.004Z,18.40
2023-04-27T16:09:44.025Z,18.60
2023-04-27T16:12:11.176Z,18.60
2023-04-27T16:14:38.565Z,18.60
2023-04-27T16:17:05.438Z,18.80
2023-04-27T16:19:32.549Z,19.00
2023-04-27T16:22:01.589Z,19.20
2023-04-27T16:24:30.905Z,19.30
2023-04-27T16:26:58.235Z,19.40
2023-04-27T16:29:25.313Z,19.50
2023-04-27T16:31:53.373Z,19.50
2023-04-27T16:34:20.533Z,19.60
2023-04-27T16:36:48.737Z,19.70
2023-04-27T16:39:18.867Z,19.70
2023-04-27T16:41:46.234Z,19.80
2023-04-27T16:44:13.838Z,19.80
2023-04-27T16:46:41.320Z,19.70
2023-04-27T16:49:08.674Z,19.50
2023-04-27T16:51:35.834Z,19.40
2023-04-27T16:54:03.122Z,19.40
2023-04-27T16:56:36.261Z,19.40
2023-04-27T16:59:06.170Z,19.40
2023-04-27T17:01:33.523Z,18.90
2023-04-27T17:04:03.562Z,18.90
2023-04-27T17:06:31.003Z,18.60
2023-04-27T17:09:00.355Z,16.30
2023-04-27T17:11:28.593Z,18.40
2023-04-27T17:13:55.693Z,18.40
2023-04-27T17:16:23.848Z,18.40
2023-04-27T17:18:51.120Z,18.40
2023-04-27T17:21:18.369Z,18.40
2023-04-27T17:23:50.603Z,18.40
2023-04-27T17:26:20.062Z,18.40
2023-04-27T17:28:47.985Z,18.40
2023-04-27T17:31:17.170Z,18.50
2023-04-27T17:33:44.217Z,18.50
2023-04-27T17:36:11.715Z,18.50
2023-04-27T17:38:38.836Z,18.30
2023-04-27T17:41:06.194Z,18.20
2023-04-27T17:43:33.439Z,18.00
2023-04-27T17:46:00.504Z,18.00
2023-04-27T17:48:27.641Z,17.90
2023-04-27T17:50:54.665Z,17.80
2023-04-27T17:53:21.936Z,17.60
2023-04-27T17:55:49.082Z,17.40
2023-04-27T17:58:17.123Z,17.20
2023-04-27T18:00:45.434Z,17.00
2023-04-27T18:03:12.642Z,16.90
2023-04-27T18:05:39.977Z,16.70
2023-04-27T18:08:06.966Z,16.60
2023-04-27T18:10:34.200Z,16.50
2023-04-27T18:13:01.286Z,16.40
2023-04-27T18:15:28.319Z,16.30
2023-04-27T18:17:55.347Z,16.20
2023-04-27T18:20:23.378Z,16.20
2023-04-27T18:22:50.634Z,16.10
2023-04-27T18:25:17.943Z,16.00
2023-04-27T18:27:45.452Z,16.00
2023-04-27T18:30:12.757Z,15.90
2023-04-27T18:32:39.748Z,15.80
2023-04-27T18:35:07.377Z,15.70
2023-04-27T18:37:34.311Z,15.60
2023-04-27T18:40:01.356Z,15.50
2023-04-27T18:42:28.458Z,15.40
2023-04-27T18:44:55.554Z,15.40
2023-04-27T18:47:22.820Z,15.30
2023-04-27T18:49:49.994Z,15.20
2023-04-27T18:52:17.097Z,15.00
2023-04-27T18:54:44.068Z,15.00
2023-04-27T18:57:10.944Z,15.00
2023-04-27T18:59:41.096Z,14.90
2023-04-27T19:02:08.818Z,14.80
2023-04-27T19:04:35.992Z,14.80
2023-04-27T19:07:03.624Z,14.80
2023-04-27T19:09:30.744Z,14.80
2023-04-27T19:12:02.704Z,14.80
2023-04-27T19:14:31.561Z,14.70
2023-04-27T19:16:58.803Z,14.60
2023-04-27T19:19:26.689Z,14.50
2023-04-27T19:21:54.554Z,14.40
2023-04-27T19:24:21.596Z,14.30
2023-04-27T19:26:48.751Z,14.20
2023-04-27T19:29:16.484Z,14.20
2023-04-27T19:31:43.748Z,14.20
2023-04-27T19:34:10.864Z,14.20
2023-04-27T19:36:37.866Z,14.20
2023-04-27T19:39:04.870Z,14.10
2023-04-27T19:41:31.842Z,14.10
2023-04-27T19:43:58.828Z,14.00
2023-04-27T19:46:26.701Z,13.90
2023-04-27T19:48:54.332Z,13.70
2023-04-27T19:51:21.446Z,13.70
2023-04-27T19:53:48.450Z,13.60
2023-04-27T19:56:15.522Z,13.60
2023-04-27T19:58:42.525Z,13.60
2023-04-27T20:01:10.390Z,13.50
2023-04-27T20:03:39.931Z,13.50
2023-04-27T20:06:07.184Z,13.50
2023-04-27T20:08:34.218Z,13.50
2023-04-27T20:11:01.192Z,13.50
2023-04-27T20:13:28.166Z,13.50
2023-04-27T20:15:55.157Z,13.50
2023-04-27T20:18:22.138Z,13.50
2023-04-27T20:20:50.248Z,13.40
2023-04-27T20:23:17.120Z,13.40
2023-04-27T20:25:44.118Z,13.30
2023-04-27T20:28:10.979Z,13.20
2023-04-27T20:30:37.924Z,13.20
2023-04-27T20:33:05.042Z,13.10
2023-04-27T20:35:32.001Z,13.10
2023-04-27T20:37:58.844Z,13.10
2023-04-27T20:40:25.840Z,13.00
2023-04-27T20:42:52.671Z,13.00
2023-04-27T20:45:19.701Z,12.90
2023-04-27T20:47:46.716Z,12.90
2023-04-27T20:50:13.746Z,12.90
2023-04-27T20:52:40.720Z,12.90
2023-04-27T20:55:07.972Z,12.90
2023-04-27T20:57:34.955Z,12.90
2023-04-27T21:00:01.979Z,12.90
2023-04-27T21:02:28.987Z,12.80
2023-04-27T21:04:56.164Z,12.80
2023-04-27T21:07:23.424Z,12.80
2023-04-27T21:09:50.408Z,12.80
2023-04-27T21:12:17.779Z,12.70
2023-04-27T21:14:45.121Z,12.70
2023-04-27T21:17:15.354Z,12.70
2023-04-27T21:19:42.447Z,12.70
2023-04-27T21:22:09.415Z,12.60
2023-04-27T21:24:36.575Z,12.60
2023-04-27T21:27:03.895Z,12.40
2023-04-27T21:29:31.258Z,12.50
2023-04-27T21:31:58.250Z,12.40
2023-04-27T21:34:25.123Z,12.30
2023-04-27T21:36:52.291Z,12.30
2023-04-27T21:39:19.278Z,12.30
2023-04-27T21:41:46.336Z,12.30
2023-04-27T21:44:13.618Z,12.30
2023-04-27T21:46:40.651Z,12.30
2023-04-27T21:49:07.480Z,12.30
2023-04-27T21:51:34.891Z,12.20
2023-04-27T21:54:01.950Z,12.30
2023-04-27T21:56:29.136Z,12.30
2023-04-27T21:58:56.023Z,12.30
2023-04-27T22:01:23.557Z,12.30
2023-04-27T22:03:50.829Z,12.30
2023-04-27T22:06:17.987Z,12.30
2023-04-27T22:08:44.924Z,12.30
2023-04-27T22:11:12.193Z,12.30
2023-04-27T22:13:39.097Z,12.30
2023-04-27T22:16:06.192Z,12.30
2023-04-27T22:18:33.429Z,12.30
2023-04-27T22:21:00.476Z,12.30
2023-04-27T22:23:31.183Z,12.30
2023-04-27T22:25:58.113Z,12.10
2023-04-27T22:28:25.005Z,12.30
2023-04-27T22:30:52.079Z,12.30
2023-04-27T22:33:19.196Z,12.20
2023-04-27T22:35:46.243Z,12.20
2023-04-27T22:38:13.395Z,12.20
2023-04-27T22:40:40.819Z,12.20
2023-04-27T22:43:07.724Z,12.20
2023-04-27T22:45:36.144Z,12.10
2023-04-27T22:48:05.255Z,12.10
2023-04-27T22:50:32.483Z,12.10
2023-04-27T22:53:00.580Z,12.00
2023-04-27T22:55:27.522Z,12.00
2023-04-27T22:57:54.678Z,12.00
2023-04-27T23:00:21.657Z,11.90
2023-04-27T23:02:48.763Z,11.90
2023-04-27T23:05:16.680Z,11.90
2023-04-27T23:07:43.624Z,11.80
2023-04-27T23:10:10.827Z,11.80
2023-04-27T23:12:38.758Z,11.70
2023-04-27T23:15:06.391Z,11.70
2023-04-27T23:17:33.650Z,11.80
2023-04-27T23:20:01.972Z,11.80
2023-04-27T23:22:28.894Z,11.70
2023-04-27T23:24:56.350Z,11.80
2023-04-27T23:27:24.752Z,11.80
2023-04-27T23:29:51.908Z,11.80
2023-04-27T23:32:18.928Z,11.70
2023-04-27T23:34:45.920Z,11.80
2023-04-27T23:37:13.423Z,11.80
2023-04-27T23:39:40.464Z,11.80
2023-04-27T23:42:07.340Z,11.80
2023-04-27T23:44:34.262Z,11.80
2023-04-27T23:47:01.121Z,11.80
2023-04-27T23:49:28.171Z,11.80
2023-04-27T23:51:56.037Z,11.80
2023-04-27T23:54:23.316Z,11.80
2023-04-27T23:56:51.586Z,11.70
2023-04-27T23:59:18.780Z,11.60
